createdAt,value
2023-05-25T00:01:02.974Z,95024.44
2023-05-25T00:03:31.361Z,95029.47
2023-05-25T00:06:01.537Z,95027.94
2023-05-25T00:08:29.706Z,95031.53
2023-05-25T00:10:56.578Z,95020.47
2023-05-25T00:13:23.342Z,95024.16
2023-05-25T00:15:50.657Z,95020.66
2023-05-25T00:18:18.494Z,95011.06
2023-05-25T00:20:45.995Z,94999.13
2023-05-25T00:23:12.784Z,95001.53
2023-05-25T00:25:39.523Z,94999.97
2023-05-25T00:28:06.468Z,94998.72
2023-05-25T00:30:33.225Z,94992.72
2023-05-25T00:33:01.619Z,94991.22
2023-05-25T00:35:28.899Z,94980.50
2023-05-25T00:37:55.991Z,94991.00
2023-05-25T00:40:22.833Z,94987.56
2023-05-25T00:42:52.494Z,94994.94
2023-05-25T00:45:19.198Z,94999.41
2023-05-25T00:47:51.244Z,94994.59
2023-05-25T00:50:30.489Z,94993.19
2023-05-25T00:52:57.326Z,94986.63
2023-05-25T00:55:25.976Z,94997.69
2023-05-25T00:57:55.442Z,95000.00
2023-05-25T01:00:23.812Z,95008.41
2023-05-25T01:02:53.137Z,95012.72
2023-05-25T01:05:21.769Z,95011.34
2023-05-25T01:07:50.581Z,95014.38
2023-05-25T01:10:20.779Z,95004.44
2023-05-25T01:12:53.242Z,95009.28
2023-05-25T01:15:20.956Z,94999.59
2023-05-25T01:17:54.126Z,95002.28
2023-05-25T01:20:21.134Z,95012.47
2023-05-25T01:22:54.283Z,95002.09
2023-05-25T01:25:31.568Z,95005.91
2023-05-25T01:28:09.526Z,94993.75
2023-05-25T01:30:38.752Z,95001.53
2023-05-25T01:33:07.385Z,94989.56
2023-05-25T01:35:35.739Z,94998.88
2023-05-25T01:38:03.096Z,95000.56
2023-05-25T01:40:29.963Z,95004.88
2023-05-25T01:42:56.862Z,95002.03
2023-05-25T01:45:24.073Z,95011.94
2023-05-25T01:48:15.418Z,95007.63
2023-05-25T01:50:54.686Z,95001.03
2023-05-25T01:53:35.983Z,94998.56
2023-05-25T01:56:08.809Z,95005.81
2023-05-25T01:58:42.076Z,95008.03
2023-05-25T02:01:10.449Z,94998.22
2023-05-25T02:03:38.257Z,95008.47
2023-05-25T02:06:05.610Z,95008.34
2023-05-25T02:08:34.919Z,95006.78
2023-05-25T02:11:01.911Z,95002.75
2023-05-25T02:13:28.682Z,95004.81
2023-05-25T02:15:55.704Z,95006.44
2023-05-25T02:18:22.624Z,95014.75
2023-05-25T02:20:49.594Z,95011.66
2023-05-25T02:23:18.670Z,95008.78
2023-05-25T02:25:45.814Z,94998.94
2023-05-25T02:28:12.930Z,95003.69
2023-05-25T02:30:39.707Z,94995.72
2023-05-25T02:33:06.547Z,95000.88
2023-05-25T02:35:34.775Z,95012.97
2023-05-25T02:38:01.910Z,95006.38
2023-05-25T02:40:28.758Z,95006.34
2023-05-25T02:42:55.734Z,95013.22
2023-05-25T02:45:22.740Z,94999.28
2023-05-25T02:47:50.084Z,94997.09
2023-05-25T02:50:17.578Z,94997.00
2023-05-25T02:52:47.508Z,95003.81
2023-05-25T02:55:14.654Z,95003.47
2023-05-25T02:57:42.460Z,95002.38
2023-05-25T03:00:12.462Z,95003.63
2023-05-25T03:02:39.656Z,95013.63
2023-05-25T03:05:07.578Z,95006.97
2023-05-25T03:07:35.713Z,95009.38
2023-05-25T03:10:02.589Z,95021.19
2023-05-25T03:12:29.678Z,95008.41
2023-05-25T03:14:56.584Z,95021.00
2023-05-25T03:17:23.582Z,95016.97
2023-05-25T03:19:50.446Z,94999.28
2023-05-25T03:22:17.205Z,95006.19
2023-05-25T03:24:46.663Z,95002.94
2023-05-25T03:27:13.946Z,94998.78
2023-05-25T03:29:40.743Z,95003.34
2023-05-25T03:32:08.798Z,94988.03
2023-05-25T03:34:37.398Z,94994.81
2023-05-25T03:37:05.442Z,95002.75
2023-05-25T03:39:32.239Z,95003.03
2023-05-25T03:41:59.067Z,95000.91
2023-05-25T03:44:25.908Z,94997.03
2023-05-25T03:46:53.471Z,95004.09
2023-05-25T03:49:20.377Z,95002.13
2023-05-25T03:51:47.139Z,95008.22
2023-05-25T03:54:14.087Z,95004.16
2023-05-25T03:56:41.006Z,95003.97
2023-05-25T03:59:07.886Z,94997.59
2023-05-25T04:01:38.180Z,95004.34
2023-05-25T04:04:06.787Z,95006.50
2023-05-25T04:06:37.230Z,95016.31
2023-05-25T04:09:04.887Z,95028.38
2023-05-25T04:11:33.276Z,95031.88
2023-05-25T04:14:00.064Z,95030.25
2023-05-25T04:16:30.020Z,95027.31
2023-05-25T04:18:57.480Z,95023.00
2023-05-25T04:21:24.736Z,95012.84
2023-05-25T04:23:51.563Z,95021.28
2023-05-25T04:26:19.543Z,95021.56
2023-05-25T04:28:48.683Z,95014.66
2023-05-25T04:31:34.062Z,95016.53
2023-05-25T04:34:21.587Z,95023.25
2023-05-25T04:37:05.614Z,95020.94
2023-05-25T04:39:33.115Z,95032.19
2023-05-25T04:42:04.698Z,95020.81
2023-05-25T04:44:33.384Z,95024.31
2023-05-25T04:47:01.478Z,95030.94
2023-05-25T04:49:34.024Z,95040.53
2023-05-25T04:52:01.080Z,95027.28
2023-05-25T04:54:29.929Z,95045.00
2023-05-25T04:56:59.452Z,95035.66
2023-05-25T04:59:26.314Z,95040.59
2023-05-25T05:01:53.175Z,95031.84
2023-05-25T05:04:20.452Z,95041.34
2023-05-25T05:06:47.755Z,95043.28
2023-05-25T05:09:23.000Z,95041.06
2023-05-25T05:11:49.845Z,95044.41
2023-05-25T05:14:18.150Z,95053.06
2023-05-25T05:16:48.061Z,95039.75
2023-05-25T05:19:15.153Z,95035.41
2023-05-25T05:21:42.255Z,95033.94
2023-05-25T05:24:09.318Z,95039.09
2023-05-25T05:26:48.171Z,95039.47
2023-05-25T05:29:27.892Z,95035.72
2023-05-25T05:31:55.632Z,95051.75
2023-05-25T05:34:22.476Z,95047.66
2023-05-25T05:36:57.506Z,95053.03
2023-05-25T05:39:27.460Z,95048.16
2023-05-25T05:41:55.157Z,95059.13
2023-05-25T05:44:23.467Z,95064.09
2023-05-25T05:46:52.285Z,95055.41
2023-05-25T05:49:19.160Z,95055.31
2023-05-25T05:51:46.048Z,95063.78
2023-05-25T05:54:13.875Z,95063.75
2023-05-25T05:56:40.889Z,95065.69
2023-05-25T05:59:07.716Z,95068.34
2023-05-25T06:01:34.647Z,95057.66
2023-05-25T06:04:02.121Z,95061.72
2023-05-25T06:06:28.903Z,95060.00
2023-05-25T06:08:57.629Z,95067.31
2023-05-25T06:11:24.419Z,95053.69
2023-05-25T06:13:51.211Z,95068.53
2023-05-25T06:16:18.060Z,95067.84
2023-05-25T06:18:45.191Z,95061.63
2023-05-25T06:21:13.028Z,95070.09
2023-05-25T06:23:39.965Z,95072.59
2023-05-25T06:26:07.127Z,95072.66
2023-05-25T06:28:34.592Z,95071.09
2023-05-25T06:31:01.444Z,95082.97
2023-05-25T06:33:28.288Z,95079.78
2023-05-25T06:35:58.677Z,95088.97
2023-05-25T06:38:25.517Z,95089.06
2023-05-25T06:40:53.054Z,95091.56
2023-05-25T06:43:20.529Z,95096.66
2023-05-25T06:45:54.578Z,95105.47
2023-05-25T06:48:21.411Z,95101.44
2023-05-25T06:50:48.240Z,95101.16
2023-05-25T06:53:15.335Z,95106.25
2023-05-25T06:55:42.572Z,95094.00
2023-05-25T06:58:09.446Z,95098.81
2023-05-25T07:00:36.234Z,95107.38
2023-05-25T07:03:03.119Z,95113.16
2023-05-25T07:05:29.927Z,95111.69
2023-05-25T07:07:56.716Z,95114.75
2023-05-25T07:10:23.966Z,95115.03
2023-05-25T07:12:50.834Z,95108.66
2023-05-25T07:15:17.775Z,95101.69
2023-05-25T07:17:45.210Z,95109.81
2023-05-25T07:20:13.265Z,95106.75
2023-05-25T07:22:40.226Z,95109.75
2023-05-25T07:25:07.471Z,95117.38
2023-05-25T07:27:34.380Z,95106.63
2023-05-25T07:30:01.137Z,95118.97
2023-05-25T07:32:28.048Z,95121.47
2023-05-25T07:34:54.914Z,95123.38
2023-05-25T07:37:21.675Z,95132.75
2023-05-25T07:39:48.566Z,95128.38
2023-05-25T07:42:20.861Z,95117.75
2023-05-25T07:44:49.129Z,95120.38
2023-05-25T07:47:16.005Z,95129.84
2023-05-25T07:49:42.923Z,95130.34
2023-05-25T07:52:10.434Z,95134.91
2023-05-25T07:54:40.329Z,95134.63
2023-05-25T07:57:08.024Z,95118.53
2023-05-25T07:59:35.320Z,95135.00
2023-05-25T08:02:02.767Z,95135.63
2023-05-25T08:04:31.373Z,95126.63
2023-05-25T08:06:58.376Z,95134.78
2023-05-25T08:09:25.122Z,95137.31
2023-05-25T08:11:52.352Z,95138.63
2023-05-25T08:14:21.265Z,95133.97
2023-05-25T08:16:48.203Z,95147.16
2023-05-25T08:19:15.073Z,95144.16
2023-05-25T08:21:41.962Z,95144.53
2023-05-25T08:24:08.776Z,95144.91
2023-05-25T08:26:52.830Z,95145.81
2023-05-25T08:29:21.406Z,95144.28
2023-05-25T08:31:49.848Z,95148.00
2023-05-25T08:34:17.144Z,95155.28
2023-05-25T08:36:44.877Z,95156.38
2023-05-25T08:39:11.880Z,95152.44
2023-05-25T08:41:43.092Z,95161.72
2023-05-25T08:44:10.807Z,95160.34
2023-05-25T08:46:37.907Z,95157.19
2023-05-25T08:49:13.200Z,95172.94
2023-05-25T08:51:49.824Z,95173.16
2023-05-25T08:54:19.661Z,95178.38
2023-05-25T08:56:50.866Z,95177.03
2023-05-25T08:59:23.474Z,95174.13
2023-05-25T09:01:56.460Z,95169.56
2023-05-25T09:04:24.185Z,95173.28
2023-05-25T09:07:05.675Z,95174.34
2023-05-25T09:09:38.041Z,95180.69
2023-05-25T09:12:06.329Z,95181.72
2023-05-25T09:14:34.858Z,95176.25
2023-05-25T09:17:01.992Z,95177.31
2023-05-25T09:19:28.757Z,95184.72
2023-05-25T09:22:03.190Z,95175.50
2023-05-25T09:24:41.528Z,95186.66
2023-05-25T09:27:11.845Z,95190.47
2023-05-25T09:29:38.901Z,95198.00
2023-05-25T09:32:06.796Z,95204.38
2023-05-25T09:34:34.976Z,95194.97
2023-05-25T09:37:04.738Z,95194.78
2023-05-25T09:39:31.845Z,95191.03
2023-05-25T09:41:58.787Z,95183.13
2023-05-25T09:44:27.200Z,95191.84
2023-05-25T09:46:54.110Z,95190.72
2023-05-25T09:49:21.332Z,95194.31
2023-05-25T09:51:48.434Z,95190.56
2023-05-25T09:54:15.637Z,95175.78
2023-05-25T09:56:42.656Z,95196.72
2023-05-25T09:59:09.618Z,95190.53
2023-05-25T10:01:36.960Z,95192.16
2023-05-25T10:04:05.455Z,95194.31
2023-05-25T10:06:33.888Z,95202.38
2023-05-25T10:09:01.692Z,95215.81
2023-05-25T10:11:29.490Z,95197.84
2023-05-25T10:13:56.827Z,95199.34
2023-05-25T10:16:29.692Z,95195.63
2023-05-25T10:19:26.047Z,95198.81
2023-05-25T10:22:01.534Z,95205.47
2023-05-25T10:24:35.150Z,95214.44
2023-05-25T10:27:14.719Z,95202.84
2023-05-25T10:29:52.582Z,95208.66
2023-05-25T10:32:19.573Z,95209.94
2023-05-25T10:34:48.819Z,95187.69
2023-05-25T10:37:18.587Z,95207.84
2023-05-25T10:39:46.348Z,95201.91
2023-05-25T10:42:13.370Z,95200.19
2023-05-25T10:44:42.150Z,95193.41
2023-05-25T10:47:09.710Z,95188.72
2023-05-25T10:49:53.252Z,95198.41
2023-05-25T10:52:20.871Z,95197.72
2023-05-25T10:54:48.929Z,95189.53
2023-05-25T10:57:20.999Z,95188.09
2023-05-25T10:59:52.310Z,95197.88
2023-05-25T11:02:25.213Z,95203.13
2023-05-25T11:05:27.409Z,95202.75
2023-05-25T11:07:57.885Z,95189.19
2023-05-25T11:10:46.376Z,95188.47
2023-05-25T11:13:23.692Z,95185.97
2023-05-25T11:16:40.182Z,95178.09
2023-05-25T11:19:15.060Z,95194.50
2023-05-25T11:21:44.021Z,95190.91
2023-05-25T11:24:14.174Z,95189.03
2023-05-25T11:26:58.747Z,95194.59
2023-05-25T11:29:27.358Z,95206.72
2023-05-25T11:31:56.197Z,95202.00
2023-05-25T11:34:28.150Z,95202.75
2023-05-25T11:37:02.294Z,95194.31
2023-05-25T11:39:30.288Z,95193.50
2023-05-25T11:42:04.344Z,95192.41
2023-05-25T11:44:34.209Z,95183.06
2023-05-25T11:47:14.928Z,95197.53
2023-05-25T11:49:44.252Z,95186.28
2023-05-25T11:52:11.182Z,95172.78
2023-05-25T11:54:41.089Z,95178.59
2023-05-25T11:57:25.384Z,95162.88
2023-05-25T11:59:54.367Z,95177.56
2023-05-25T12:02:22.128Z,95164.81
2023-05-25T12:04:59.433Z,95173.09
2023-05-25T12:07:26.869Z,95181.84
2023-05-25T12:10:08.444Z,95171.88
2023-05-25T12:12:50.965Z,95174.00
2023-05-25T12:15:27.176Z,95180.50
2023-05-25T12:17:54.583Z,95192.44
2023-05-25T12:20:22.530Z,95194.19
2023-05-25T12:22:49.800Z,95186.28
2023-05-25T12:25:20.241Z,95185.22
2023-05-25T12:27:47.080Z,95183.06
2023-05-25T12:30:14.062Z,95179.38
2023-05-25T12:33:03.816Z,95175.25
2023-05-25T12:35:45.234Z,95183.72
2023-05-25T12:38:18.285Z,95168.41
2023-05-25T12:40:45.635Z,95178.53
2023-05-25T12:43:14.223Z,95162.59
2023-05-25T12:45:42.602Z,95165.63
2023-05-25T12:48:09.801Z,95153.13
2023-05-25T12:50:41.406Z,95174.75
2023-05-25T12:53:08.320Z,95168.50
2023-05-25T12:55:36.292Z,95167.44
2023-05-25T12:58:05.696Z,95175.69
2023-05-25T13:00:35.502Z,95175.66
2023-05-25T13:03:02.950Z,95187.38
2023-05-25T13:05:32.982Z,95191.34
2023-05-25T13:07:59.956Z,95196.13
2023-05-25T13:10:28.818Z,95169.69
2023-05-25T13:12:58.332Z,95182.66
2023-05-25T13:15:26.372Z,95170.53
2023-05-25T13:17:54.301Z,95175.97
2023-05-25T13:20:24.945Z,95159.78
2023-05-25T13:22:53.185Z,95178.91
2023-05-25T13:25:22.325Z,95170.13
2023-05-25T13:27:51.112Z,95179.81
2023-05-25T13:30:18.325Z,95153.00
2023-05-25T13:32:45.745Z,95148.09
2023-05-25T13:35:19.359Z,95141.53
2023-05-25T13:37:46.502Z,95150.66
2023-05-25T13:40:13.740Z,95142.81
2023-05-25T13:42:40.896Z,95162.59
2023-05-25T13:45:08.404Z,95155.03
2023-05-25T13:47:35.381Z,95147.34
2023-05-25T13:50:02.305Z,95141.75
2023-05-25T13:52:29.112Z,95119.47
2023-05-25T13:54:55.991Z,95139.53
2023-05-25T13:57:22.792Z,95144.06
2023-05-25T13:59:49.565Z,95132.59
2023-05-25T14:02:16.594Z,95144.16
2023-05-25T14:04:43.501Z,95149.25
2023-05-25T14:07:11.034Z,95161.63
2023-05-25T14:09:37.967Z,95137.72
2023-05-25T14:12:05.162Z,95146.16
2023-05-25T14:14:33.038Z,95179.91
2023-05-25T14:17:01.346Z,95166.22
2023-05-25T14:19:29.377Z,95139.53
2023-05-25T14:22:11.725Z,95152.09
2023-05-25T14:24:40.696Z,95152.75
2023-05-25T14:27:07.532Z,95145.22
2023-05-25T14:29:34.648Z,95148.13
2023-05-25T14:32:01.968Z,95161.53
2023-05-25T14:34:29.557Z,95162.88
2023-05-25T14:36:56.784Z,95134.03
2023-05-25T14:39:23.661Z,95137.66
2023-05-25T14:41:50.680Z,95144.56
2023-05-25T14:44:17.607Z,95160.72
2023-05-25T14:46:44.429Z,95128.44
2023-05-25T14:49:11.211Z,95134.50
2023-05-25T14:51:38.339Z,95146.00
2023-05-25T14:54:06.448Z,95151.00
2023-05-25T14:56:33.679Z,95140.78
2023-05-25T14:59:00.440Z,95131.59
2023-05-25T15:01:32.496Z,95150.13
2023-05-25T15:03:59.386Z,95176.66
2023-05-25T15:06:26.328Z,95171.88
2023-05-25T15:08:53.383Z,95126.16
2023-05-25T15:11:20.269Z,95170.06
2023-05-25T15:13:47.059Z,95154.41
2023-05-25T15:16:14.660Z,95139.94
2023-05-25T15:18:41.671Z,95148.19
2023-05-25T15:21:08.902Z,95152.00
2023-05-25T15:23:36.762Z,95129.13
2023-05-25T15:26:07.852Z,95126.34
2023-05-25T15:28:35.078Z,95156.09
2023-05-25T15:31:03.349Z,95150.78
2023-05-25T15:33:44.152Z,95157.50
2023-05-25T15:36:16.754Z,95133.41
2023-05-25T15:38:44.502Z,95150.16
2023-05-25T15:41:15.087Z,95110.63
2023-05-25T15:43:42.278Z,95152.91
2023-05-25T15:46:09.072Z,95157.25
2023-05-25T15:48:36.022Z,95126.06
2023-05-25T15:51:02.830Z,95134.69
2023-05-25T15:53:30.447Z,95138.91
2023-05-25T15:55:57.437Z,95135.91
2023-05-25T15:58:24.243Z,95127.81
2023-05-25T16:00:51.059Z,95147.31
2023-05-25T16:03:17.936Z,95152.75
2023-05-25T16:05:45.016Z,95126.94
2023-05-25T16:08:14.059Z,95146.59
2023-05-25T16:10:40.914Z,95127.94
2023-05-25T16:13:07.729Z,95140.97
2023-05-25T16:15:34.503Z,95139.13
2023-05-25T16:18:01.407Z,95139.94
2023-05-25T16:20:28.272Z,95135.31
2023-05-25T16:22:55.069Z,95157.50
2023-05-25T16:25:21.969Z,95160.94
2023-05-25T16:27:48.769Z,95145.97
2023-05-25T16:30:15.584Z,95145.88
2023-05-25T16:32:42.456Z,95151.38
2023-05-25T16:35:09.443Z,95166.69
2023-05-25T16:37:36.225Z,95170.41
2023-05-25T16:40:03.119Z,95144.09
2023-05-25T16:42:29.951Z,95152.16
2023-05-25T16:44:56.686Z,95140.66
2023-05-25T16:47:23.436Z,95153.06
2023-05-25T16:49:50.281Z,95151.22
2023-05-25T16:52:17.096Z,95153.59
2023-05-25T16:54:43.854Z,95149.00
2023-05-25T16:57:11.412Z,95165.09
2023-05-25T16:59:39.358Z,95157.34
2023-05-25T17:02:06.803Z,95148.00
2023-05-25T17:04:33.612Z,95137.41
2023-05-25T17:07:00.459Z,95142.97
2023-05-25T17:09:27.564Z,95154.28
2023-05-25T17:11:59.411Z,95142.34
2023-05-25T17:14:26.240Z,95149.63
2023-05-25T17:16:53.511Z,95150.69
2023-05-25T17:19:20.307Z,95149.56
2023-05-25T17:21:47.648Z,95149.06
2023-05-25T17:24:14.490Z,95149.72
2023-05-25T17:26:41.525Z,95150.56
2023-05-25T17:29:08.361Z,95148.13
2023-05-25T17:31:35.652Z,95158.53
2023-05-25T17:34:05.904Z,95152.72
2023-05-25T17:36:32.726Z,95149.13
2023-05-25T17:38:59.586Z,95156.34
2023-05-25T17:41:26.512Z,95151.78
2023-05-25T17:43:53.414Z,95155.53
2023-05-25T17:46:45.660Z,95151.09
2023-05-25T17:49:15.345Z,95154.63
2023-05-25T17:51:42.277Z,95149.13
2023-05-25T17:55:00.537Z,95159.66
2023-05-25T17:57:27.458Z,95154.53
2023-05-25T17:59:56.375Z,95155.91
2023-05-25T18:02:23.460Z,95157.38
2023-05-25T18:04:50.637Z,95156.75
2023-05-25T18:07:18.023Z,95160.59
2023-05-25T18:09:44.855Z,95164.66
2023-05-25T18:12:11.795Z,95163.59
2023-05-25T18:14:38.735Z,95159.69
2023-05-25T18:17:05.695Z,95166.56
2023-05-25T18:19:32.593Z,95171.94
2023-05-25T18:21:59.456Z,95174.72
2023-05-25T18:24:26.388Z,95173.75
2023-05-25T18:26:53.189Z,95178.81
2023-05-25T18:29:20.014Z,95175.03
2023-05-25T18:31:48.917Z,95176.31
2023-05-25T18:34:16.133Z,95180.13
2023-05-25T18:36:42.996Z,95173.94
2023-05-25T18:39:09.895Z,95180.34
2023-05-25T18:41:36.829Z,95185.09
2023-05-25T18:44:03.709Z,95189.28
2023-05-25T18:46:30.694Z,95179.25
2023-05-25T18:48:57.425Z,95175.81
2023-05-25T18:51:25.983Z,95188.59
2023-05-25T18:53:53.408Z,95193.97
2023-05-25T18:56:20.182Z,95184.53
2023-05-25T18:58:48.262Z,95191.81
2023-05-25T19:01:15.722Z,95195.91
2023-05-25T19:03:42.621Z,95195.03
2023-05-25T19:06:09.616Z,95197.31
2023-05-25T19:08:36.420Z,95201.84
2023-05-25T19:11:03.303Z,95200.78
2023-05-25T19:13:30.101Z,95204.53
2023-05-25T19:15:56.958Z,95211.50
2023-05-25T19:18:23.779Z,95216.72
2023-05-25T19:20:50.663Z,95222.84
2023-05-25T19:23:19.503Z,95221.69
2023-05-25T19:25:46.672Z,95219.41
2023-05-25T19:28:14.346Z,95213.00
2023-05-25T19:30:41.331Z,95224.97
2023-05-25T19:33:08.369Z,95229.56
2023-05-25T19:35:35.701Z,95231.25
2023-05-25T19:38:02.591Z,95240.03
2023-05-25T19:40:29.493Z,95240.22
2023-05-25T19:42:56.370Z,95240.53
2023-05-25T19:45:23.294Z,95239.16
2023-05-25T19:47:50.633Z,95245.47
2023-05-25T19:50:17.648Z,95248.16
2023-05-25T19:52:44.639Z,95250.28
2023-05-25T19:55:11.687Z,95255.38
2023-05-25T19:57:38.604Z,95254.63
2023-05-25T20:00:14.193Z,95252.44
2023-05-25T20:02:48.330Z,95257.50
2023-05-25T20:05:15.197Z,95254.94
2023-05-25T20:07:42.160Z,95254.34
2023-05-25T20:10:09.316Z,95257.84
2023-05-25T20:12:36.235Z,95263.53
2023-05-25T20:15:03.701Z,95266.56
2023-05-25T20:17:30.765Z,95268.25
2023-05-25T20:19:59.626Z,95266.78
2023-05-25T20:22:28.165Z,95271.13
2023-05-25T20:24:58.376Z,95267.66
2023-05-25T20:27:25.923Z,95270.56
2023-05-25T20:29:54.083Z,95267.28
2023-05-25T20:32:21.210Z,95267.72
2023-05-25T20:34:50.519Z,95271.56
2023-05-25T20:37:17.442Z,95271.72
2023-05-25T20:39:44.670Z,95263.91
2023-05-25T20:42:11.850Z,95272.34
2023-05-25T20:44:38.942Z,95266.16
2023-05-25T20:47:08.759Z,95273.75
2023-05-25T20:49:35.774Z,95261.47
2023-05-25T20:52:02.857Z,95272.41
2023-05-25T20:54:30.153Z,95274.69
2023-05-25T20:56:57.254Z,95274.38
2023-05-25T20:59:24.241Z,95269.66
2023-05-25T21:01:51.315Z,95267.84
2023-05-25T21:04:18.493Z,95261.38
2023-05-25T21:06:45.725Z,95270.56
2023-05-25T21:09:12.807Z,95273.03
2023-05-25T21:11:39.756Z,95279.94
2023-05-25T21:14:07.396Z,95278.97
2023-05-25T21:16:34.885Z,95276.16
2023-05-25T21:19:04.158Z,95271.94
2023-05-25T21:21:33.981Z,95275.13
2023-05-25T21:24:04.393Z,95280.72
2023-05-25T21:26:31.624Z,95279.19
2023-05-25T21:29:01.931Z,95280.78
2023-05-25T21:31:29.030Z,95277.25
2023-05-25T21:33:56.153Z,95280.81
2023-05-25T21:36:23.259Z,95286.28
2023-05-25T21:38:50.600Z,95286.84
2023-05-25T21:41:17.799Z,95287.50
2023-05-25T21:43:44.784Z,95288.94
2023-05-25T21:46:11.638Z,95285.25
2023-05-25T21:48:38.434Z,95280.69
2023-05-25T21:51:05.560Z,95281.91
2023-05-25T21:53:32.457Z,95283.91
2023-05-25T21:55:59.344Z,95286.00
2023-05-25T21:58:26.279Z,95282.38
2023-05-25T22:00:53.167Z,95285.03
2023-05-25T22:03:20.116Z,95272.19
2023-05-25T22:05:47.041Z,95283.25
2023-05-25T22:08:13.914Z,95273.50
2023-05-25T22:10:41.200Z,95280.75
2023-05-25T22:13:08.082Z,95286.16
2023-05-25T22:15:35.328Z,95280.28
2023-05-25T22:18:02.365Z,95277.72
2023-05-25T22:20:29.307Z,95281.50
2023-05-25T22:22:56.154Z,95282.66
2023-05-25T22:25:23.202Z,95276.00
2023-05-25T22:27:49.993Z,95284.97
2023-05-25T22:30:16.843Z,95293.09
2023-05-25T22:32:43.671Z,95289.66
2023-05-25T22:35:10.615Z,95296.84
2023-05-25T22:37:37.474Z,95289.09
2023-05-25T22:40:05.916Z,95292.19
2023-05-25T22:42:32.862Z,95290.25
2023-05-25T22:44:59.614Z,95292.03
2023-05-25T22:47:26.487Z,95287.97
2023-05-25T22:49:53.332Z,95287.94
2023-05-25T22:52:20.164Z,95291.44
2023-05-25T22:54:47.004Z,95289.34
2023-05-25T22:57:13.814Z,95285.44
2023-05-25T22:59:40.709Z,95277.88
2023-05-25T23:02:08.077Z,95282.34
2023-05-25T23:04:38.274Z,95275.16
2023-05-25T23:07:05.354Z,95292.22
2023-05-25T23:09:32.121Z,95286.50
2023-05-25T23:11:58.846Z,95297.34
2023-05-25T23:14:26.219Z,95295.06
2023-05-25T23:16:53.027Z,95289.53
2023-05-25T23:19:20.000Z,95288.34
2023-05-25T23:21:48.327Z,95290.44
2023-05-25T23:24:15.604Z,95286.13
2023-05-25T23:26:42.447Z,95291.63
2023-05-25T23:29:09.344Z,95280.69
2023-05-25T23:31:36.655Z,95282.78
2023-05-25T23:34:03.513Z,95290.00
2023-05-25T23:36:30.332Z,95297.09
2023-05-25T23:38:57.115Z,95293.81
2023-05-25T23:41:25.398Z,95288.38
2023-05-25T23:43:52.273Z,95286.25
2023-05-25T23:46:19.346Z,95283.69
2023-05-25T23:48:46.302Z,95283.00
2023-05-25T23:51:13.325Z,95268.81
2023-05-25T23:53:40.075Z,95269.38
2023-05-25T23:56:07.137Z,95274.59
2023-05-25T23:58:34.326Z,95270.94
